Time;durP1;ratioP1;P1;durP2;ratioP2;P2;SDS_P1;SDS_P2;PMS_P1;PMS_P2;Temp;Humidity;BMP_temperature;BMP_pressure;BME280_temperature;BME280_humidity;BME280_pressure;Samples;Min_cycle;Max_cycle;Signal;HPM_P1;HPM_P2
2022/05/08 00:01:28;;;;;;;;;29.75;26.00;;;;;-143.93;100.00;62969.28;5003740;28;8852;-69
2022/05/08 00:03:53;;;;;;;;;24.00;23.50;;;;;-143.93;100.00;62969.28;5002469;28;8825;-69
2022/05/08 00:06:19;;;;;;;;;28.75;26.00;;;;;-143.93;100.00;62969.28;5014543;28;9608;-69
2022/05/08 00:08:44;;;;;;;;;28.50;26.00;;;;;-143.93;100.00;62969.28;5006533;28;8926;-69
2022/05/08 00:11:09;;;;;;;;;28.75;25.75;;;;;-143.93;100.00;62969.28;4993421;28;8947;-69
2022/05/08 00:13:35;;;;;;;;;30.00;25.50;;;;;-143.93;100.00;62969.28;5021144;27;8820;-69
2022/05/08 00:16:01;;;;;;;;;28.25;25.00;;;;;-143.93;100.00;62969.28;5001394;28;8805;-69
2022/05/08 00:18:27;;;;;;;;;27.50;22.25;;;;;-143.93;100.00;62969.28;5003917;28;8816;-69
2022/05/08 00:20:52;;;;;;;;;22.25;21.75;;;;;-143.93;100.00;62969.28;5008582;28;8821;-69
2022/05/08 00:23:17;;;;;;;;;32.25;23.75;;;;;-143.93;100.00;62969.28;5007179;28;8844;-68
2022/05/08 00:25:43;;;;;;;;;29.25;26.25;;;;;-143.93;100.00;62969.28;5002998;28;8809;-68
2022/05/08 00:28:08;;;;;;;;;32.25;23.75;;;;;-143.93;100.00;62969.28;4998966;28;8824;-69
2022/05/08 00:30:33;;;;;;;;;23.25;21.50;;;;;-143.93;100.00;62969.28;4995264;28;8977;-68
2022/05/08 00:32:59;;;;;;;;;32.50;24.75;;;;;-143.93;100.00;62969.28;4989063;28;8827;-68
2022/05/08 00:35:24;;;;;;;;;22.50;20.25;;;;;-143.93;100.00;62969.28;5006135;28;8982;-68
2022/05/08 00:37:50;;;;;;;;;24.25;22.00;;;;;-143.93;100.00;62969.28;4995191;28;8878;-68
2022/05/08 00:40:15;;;;;;;;;28.25;23.25;;;;;-143.93;100.00;62969.28;5000061;28;8821;-68
2022/05/08 00:42:41;;;;;;;;;26.00;24.50;;;;;-143.93;100.00;62969.28;5026569;27;8821;-68
2022/05/08 00:45:07;;;;;;;;;26.75;21.25;;;;;-143.93;100.00;62969.28;5008076;28;8816;-68
2022/05/08 00:47:33;;;;;;;;;28.25;22.25;;;;;-143.93;100.00;62969.28;5014757;28;8841;-68
2022/05/08 00:49:59;;;;;;;;;27.00;25.75;;;;;-143.93;100.00;62969.28;5003933;28;8797;-68
2022/05/08 00:52:25;;;;;;;;;25.75;20.75;;;;;-143.93;100.00;62969.28;5003717;28;8895;-68
2022/05/08 00:54:50;;;;;;;;;24.00;18.75;;;;;-143.93;100.00;62969.28;5007108;28;8942;-68
2022/05/08 00:57:15;;;;;;;;;28.00;23.00;;;;;-143.93;100.00;62969.28;5007133;28;8821;-68
2022/05/08 00:59:41;;;;;;;;;29.25;25.00;;;;;-143.93;100.00;62969.28;5017716;28;8803;-68
2022/05/08 01:02:06;;;;;;;;;33.75;30.00;;;;;-143.93;100.00;62969.28;5004767;28;8841;-68
2022/05/08 01:04:32;;;;;;;;;27.75;24.25;;;;;-143.93;100.00;62969.28;5002779;28;9054;-69
2022/05/08 01:06:58;;;;;;;;;27.00;24.00;;;;;-143.93;100.00;62969.28;5003613;28;8825;-68
2022/05/08 01:09:23;;;;;;;;;23.75;22.25;;;;;-143.93;100.00;62969.28;5009896;28;8805;-68
2022/05/08 01:11:49;;;;;;;;;28.00;21.00;;;;;-143.93;100.00;62969.28;5006213;28;8790;-68
2022/05/08 01:14:14;;;;;;;;;31.00;26.75;;;;;-143.93;100.00;62969.28;5006077;28;9695;-68
2022/05/08 01:16:40;;;;;;;;;26.50;23.00;;;;;-143.93;100.00;62969.28;5002345;28;9601;-68
2022/05/08 01:19:05;;;;;;;;;30.50;27.50;;;;;-143.93;100.00;62969.28;5011251;28;8831;-68
2022/05/08 01:21:41;;;;;;;;;31.00;26.25;;;;;-143.93;100.00;62969.28;5001878;28;8841;-68
2022/05/08 01:24:08;;;;;;;;;24.50;20.75;;;;;-143.93;100.00;62969.28;5072021;28;8796;-69
2022/05/08 01:26:33;;;;;;;;;30.25;26.00;;;;;-143.93;100.00;62969.28;5006364;28;8810;-68
2022/05/08 01:29:00;;;;;;;;;23.50;20.50;;;;;-143.93;100.00;62969.28;5001833;28;9566;-68
2022/05/08 01:31:25;;;;;;;;;25.25;23.25;;;;;-143.93;100.00;62969.28;5007971;28;8789;-68
2022/05/08 01:33:51;;;;;;;;;25.00;22.00;;;;;-143.93;100.00;62969.28;5001335;28;8869;-68
2022/05/08 01:36:16;;;;;;;;;21.50;21.25;;;;;-143.93;100.00;62969.28;5011581;28;8820;-68
2022/05/08 01:38:42;;;;;;;;;28.25;21.25;;;;;-143.93;100.00;62969.28;5005953;28;8820;-68
2022/05/08 01:41:08;;;;;;;;;26.25;21.50;;;;;-143.93;100.00;62969.28;4995190;28;8858;-68
2022/05/08 01:43:36;;;;;;;;;30.00;25.00;;;;;-143.93;100.00;62969.28;5004188;28;8800;-68
2022/05/08 01:46:06;;;;;;;;;29.25;22.75;;;;;-143.93;100.00;62969.28;5002743;28;9587;-68
2022/05/08 01:48:32;;;;;;;;;20.50;19.50;;;;;-143.93;100.00;62969.28;4994227;28;8843;-69
2022/05/08 01:51:00;;;;;;;;;21.00;19.25;;;;;-143.93;100.00;62969.28;4991270;28;8791;-69
2022/05/08 01:53:33;;;;;;;;;34.25;26.50;;;;;-143.93;100.00;62969.28;5007586;28;8802;-68
2022/05/08 01:55:59;;;;;;;;;30.00;25.25;;;;;-143.93;100.00;62969.28;5003203;28;8797;-68
2022/05/08 01:58:27;;;;;;;;;22.25;19.50;;;;;-143.93;100.00;62969.28;5003113;28;9017;-68
2022/05/08 02:00:53;;;;;;;;;32.00;25.75;;;;;-143.93;100.00;62969.28;5004309;28;8793;-68
2022/05/08 02:03:21;;;;;;;;;27.00;23.00;;;;;-143.93;100.00;62969.28;4992396;28;8847;-68
2022/05/08 02:05:47;;;;;;;;;28.50;26.00;;;;;-143.93;100.00;62969.28;5015262;28;8930;-69
2022/05/08 02:08:12;;;;;;;;;29.00;22.00;;;;;-143.93;100.00;62969.28;5004428;28;8836;-68
2022/05/08 02:10:38;;;;;;;;;27.50;20.75;;;;;-143.93;100.00;62969.28;4998335;28;8854;-68
2022/05/08 02:13:04;;;;;;;;;24.50;21.75;;;;;-143.93;100.00;62969.28;5001013;28;8804;-68
2022/05/08 02:15:30;;;;;;;;;26.50;21.00;;;;;-143.93;100.00;62969.28;5004592;28;8922;-68
2022/05/08 02:17:59;;;;;;;;;23.00;20.75;;;;;-143.93;100.00;62969.28;5009605;28;8819;-68
2022/05/08 02:20:25;;;;;;;;;33.00;26.00;;;;;-143.93;100.00;62969.28;5005040;28;8923;-68
2022/05/08 02:22:51;;;;;;;;;28.75;24.50;;;;;-143.93;100.00;62969.28;5003241;28;8935;-68
2022/05/08 02:25:17;;;;;;;;;29.25;25.00;;;;;-143.93;100.00;62969.28;5000614;28;8804;-68
2022/05/08 02:27:46;;;;;;;;;27.25;21.75;;;;;-143.93;100.00;62969.28;4994582;28;8933;-68
2022/05/08 02:30:12;;;;;;;;;32.00;24.25;;;;;-143.93;100.00;62969.28;4993624;28;8805;-68
2022/05/08 02:32:38;;;;;;;;;28.50;26.75;;;;;-143.93;100.00;62969.28;5005336;28;8825;-68
2022/05/08 02:35:06;;;;;;;;;29.25;23.25;;;;;-143.93;100.00;62969.28;5006404;28;8907;-68
2022/05/08 02:37:32;;;;;;;;;34.50;28.75;;;;;-143.93;100.00;62969.28;4999381;28;8808;-68
2022/05/08 02:39:58;;;;;;;;;32.50;25.00;;;;;-143.93;100.00;62969.28;5006304;28;8811;-68
2022/05/08 02:42:23;;;;;;;;;30.00;23.00;;;;;-143.93;100.00;62969.28;4998858;28;9578;-68
2022/05/08 02:44:49;;;;;;;;;28.75;23.75;;;;;-143.93;100.00;62969.28;4992133;28;8846;-68
2022/05/08 02:47:14;;;;;;;;;28.75;26.50;;;;;-143.93;100.00;62969.28;5006773;28;8813;-68
2022/05/08 02:49:40;;;;;;;;;33.50;28.50;;;;;-143.93;100.00;62969.28;5005648;27;8849;-68
2022/05/08 02:52:06;;;;;;;;;33.50;28.25;;;;;-143.93;100.00;62969.28;5002801;28;8862;-68
2022/05/08 02:54:31;;;;;;;;;37.00;31.00;;;;;-143.93;100.00;62969.28;5005424;28;8825;-68
2022/05/08 02:59:40;;;;;;;;;31.25;27.25;;;;;-143.93;100.00;62969.28;5008132;28;8785;-68
2022/05/08 03:02:07;;;;;;;;;32.00;27.25;;;;;-143.93;100.00;62969.28;5003307;28;8835;-68
2022/05/08 03:04:32;;;;;;;;;32.75;29.25;;;;;-143.93;100.00;62969.28;5007328;27;8833;-68
2022/05/08 03:06:58;;;;;;;;;29.25;27.00;;;;;-143.93;100.00;62969.28;5002573;28;8833;-68
2022/05/08 03:09:23;;;;;;;;;36.50;28.00;;;;;-143.93;100.00;62969.28;5012876;28;8833;-68
2022/05/08 03:11:48;;;;;;;;;40.75;33.50;;;;;-143.93;100.00;62969.28;5005003;28;8821;-68
2022/05/08 03:14:14;;;;;;;;;38.75;30.25;;;;;-143.93;100.00;62969.28;5004206;28;8837;-68
2022/05/08 03:16:40;;;;;;;;;35.25;30.00;;;;;-143.93;100.00;62969.28;5000541;27;8821;-68
2022/05/08 03:19:05;;;;;;;;;38.25;31.50;;;;;-143.93;100.00;62969.28;5001198;27;8804;-68
2022/05/08 03:21:31;;;;;;;;;40.00;31.50;;;;;-143.93;100.00;62969.28;5005684;28;8864;-68
2022/05/08 03:23:56;;;;;;;;;33.50;28.50;;;;;-143.93;100.00;62969.28;5021124;28;8816;-68
2022/05/08 03:26:22;;;;;;;;;26.00;23.50;;;;;-143.93;100.00;62969.28;5003917;28;19267;-68
2022/05/08 03:28:48;;;;;;;;;33.50;25.25;;;;;-143.93;100.00;62969.28;5001885;28;8819;-68
2022/05/08 03:31:14;;;;;;;;;38.50;32.00;;;;;-143.93;100.00;62969.28;5002165;27;8817;-68
2022/05/08 03:33:40;;;;;;;;;35.25;30.75;;;;;-143.93;100.00;62969.28;5001825;28;8838;-68
2022/05/08 03:36:07;;;;;;;;;39.50;33.00;;;;;-143.93;100.00;62969.28;5003706;28;8813;-68
2022/05/08 03:38:35;;;;;;;;;46.50;33.75;;;;;-143.93;100.00;62969.28;5004357;28;8793;-68
2022/05/08 03:41:01;;;;;;;;;42.00;32.75;;;;;-143.93;100.00;62969.28;5002705;28;8832;-68
2022/05/08 03:43:27;;;;;;;;;47.75;35.50;;;;;-143.93;100.00;62969.28;5013013;28;8881;-68
2022/05/08 03:45:52;;;;;;;;;43.50;31.25;;;;;-143.93;100.00;62969.28;5010826;28;9552;-68
2022/05/08 03:48:19;;;;;;;;;52.75;35.00;;;;;-143.93;100.00;62969.28;5004462;28;8849;-68
2022/05/08 03:50:45;;;;;;;;;44.75;34.75;;;;;-143.93;100.00;62969.28;5005063;28;8793;-68
2022/05/08 03:53:10;;;;;;;;;48.25;38.25;;;;;-143.93;100.00;62969.28;5002715;28;8860;-68
2022/05/08 03:55:36;;;;;;;;;48.00;35.75;;;;;-143.93;100.00;62969.28;5001685;28;8841;-68
2022/05/08 03:58:01;;;;;;;;;48.50;36.25;;;;;-143.93;100.00;62969.28;5005672;28;8840;-68
2022/05/08 04:00:27;;;;;;;;;45.25;36.25;;;;;-143.93;100.00;62969.28;5003502;28;8855;-68
2022/05/08 04:02:53;;;;;;;;;48.25;36.75;;;;;-143.93;100.00;62969.28;5004751;28;8904;-68
2022/05/08 04:05:19;;;;;;;;;50.75;38.75;;;;;-143.93;100.00;62969.28;5011318;28;8834;-68
2022/05/08 04:07:45;;;;;;;;;52.75;38.25;;;;;-143.93;100.00;62969.28;5003505;28;8828;-68
2022/05/08 04:10:12;;;;;;;;;52.00;41.50;;;;;-143.93;100.00;62969.28;5000533;28;8873;-68
2022/05/08 04:12:38;;;;;;;;;53.25;37.25;;;;;-143.93;100.00;62969.28;5005664;28;8794;-68
2022/05/08 04:15:04;;;;;;;;;52.25;39.50;;;;;-143.93;100.00;62969.28;4989853;28;8906;-68
2022/05/08 04:17:31;;;;;;;;;54.25;42.00;;;;;-143.93;100.00;62969.28;5003982;28;8790;-68
2022/05/08 04:19:57;;;;;;;;;55.50;41.50;;;;;-143.93;100.00;62969.28;5001294;28;8801;-68
2022/05/08 04:25:08;;;;;;;;;50.00;40.00;;;;;-143.93;100.00;62969.28;5001298;28;8952;-68
2022/05/08 04:27:35;;;;;;;;;57.25;42.50;;;;;-143.93;100.00;62969.28;5011144;28;8820;-68
2022/05/08 04:30:01;;;;;;;;;54.75;41.50;;;;;-143.93;100.00;62969.28;5005971;28;8829;-68
2022/05/08 04:32:26;;;;;;;;;48.25;39.50;;;;;-143.93;100.00;62969.28;5003309;28;8781;-68
2022/05/08 04:34:52;;;;;;;;;51.67;41.33;;;;;-143.93;100.00;62969.28;5004551;28;15095;-68
2022/05/08 04:37:17;;;;;;;;;55.00;42.25;;;;;-143.93;100.00;62969.28;5004121;28;9177;-68
2022/05/08 04:39:42;;;;;;;;;58.25;41.50;;;;;-143.93;100.00;62969.28;4992810;28;8817;-68
2022/05/08 04:42:08;;;;;;;;;59.67;44.00;;;;;-143.93;100.00;62969.28;5000480;28;14630;-68
2022/05/08 04:44:33;;;;;;;;;60.25;41.50;;;;;-143.93;100.00;62969.28;5022478;28;9254;-68
2022/05/08 04:46:59;;;;;;;;;62.25;44.00;;;;;-143.93;100.00;62969.28;5001026;28;8826;-68
2022/05/08 04:49:24;;;;;;;;;57.00;43.00;;;;;-143.93;100.00;62969.28;5003811;28;13245;-68
2022/05/08 04:51:49;;;;;;;;;51.25;42.00;;;;;-143.93;100.00;62969.28;5001010;28;9090;-68
2022/05/08 04:54:15;;;;;;;;;58.33;44.00;;;;;-143.93;100.00;62969.28;5003966;28;13380;-69
2022/05/08 04:56:40;;;;;;;;;60.75;45.25;;;;;-143.93;100.00;62969.28;5003479;28;8910;-68
2022/05/08 04:59:06;;;;;;;;;64.50;45.75;;;;;-143.93;100.00;62969.28;5003406;28;8928;-68
2022/05/08 05:01:31;;;;;;;;;51.00;38.25;;;;;-143.93;100.00;62969.28;4996558;28;8828;-68
2022/05/08 05:03:56;;;;;;;;;58.50;43.75;;;;;-143.93;100.00;62969.28;4993509;28;8848;-68
2022/05/08 05:06:22;;;;;;;;;54.75;43.25;;;;;-143.93;100.00;62969.28;5012866;28;8824;-68
2022/05/08 05:08:47;;;;;;;;;58.33;43.33;;;;;-143.93;100.00;62969.28;5004583;28;16348;-68
2022/05/08 05:11:12;;;;;;;;;59.75;45.00;;;;;-143.93;100.00;62969.28;4991677;28;9228;-68
2022/05/08 05:13:38;;;;;;;;;58.00;42.50;;;;;-143.93;100.00;62969.28;5003173;28;8834;-68
2022/05/08 05:16:07;;;;;;;;;55.75;43.00;;;;;-143.93;100.00;62969.28;4993514;28;8782;-68
2022/05/08 05:18:33;;;;;;;;;62.25;46.00;;;;;-143.93;100.00;62969.28;5001319;28;8804;-68
2022/05/08 05:20:59;;;;;;;;;61.00;43.25;;;;;-143.93;100.00;62969.28;5004454;28;8909;-68
2022/05/08 05:23:25;;;;;;;;;59.75;44.75;;;;;-143.93;100.00;62969.28;5011458;28;8814;-68
2022/05/08 05:25:51;;;;;;;;;53.50;41.00;;;;;-143.93;100.00;62969.28;5001499;27;8790;-68
2022/05/08 05:28:17;;;;;;;;;60.00;46.75;;;;;-143.93;100.00;62969.28;5003413;28;8946;-68
2022/05/08 05:30:43;;;;;;;;;60.25;44.75;;;;;-143.93;100.00;62969.28;5003380;28;8819;-68
2022/05/08 05:33:15;;;;;;;;;56.75;40.75;;;;;-143.93;100.00;62969.28;5015150;28;8806;-68
2022/05/08 05:35:41;;;;;;;;;59.25;44.75;;;;;-143.93;100.00;62969.28;5006110;28;8805;-69
2022/05/08 05:38:06;;;;;;;;;57.25;44.00;;;;;-143.93;100.00;62969.28;5002709;28;8845;-68
2022/05/08 05:40:31;;;;;;;;;52.50;41.50;;;;;-143.93;100.00;62969.28;4998823;28;8808;-68
2022/05/08 05:42:57;;;;;;;;;63.00;44.50;;;;;-143.93;100.00;62969.28;4995070;28;8816;-68
2022/05/08 05:45:23;;;;;;;;;59.75;43.50;;;;;-143.93;100.00;62969.28;4993299;28;8800;-68
2022/05/08 05:47:53;;;;;;;;;61.50;44.50;;;;;-143.93;100.00;62969.28;4992070;28;8914;-68
2022/05/08 05:50:24;;;;;;;;;59.25;43.00;;;;;-143.93;100.00;62969.28;5007804;28;8916;-68
2022/05/08 05:52:51;;;;;;;;;60.75;46.00;;;;;-143.93;100.00;62969.28;5004807;28;8793;-68
2022/05/08 05:55:17;;;;;;;;;57.00;44.25;;;;;-143.93;100.00;62969.28;4999936;28;8934;-68
2022/05/08 05:57:43;;;;;;;;;57.00;44.00;;;;;-143.93;100.00;62969.28;4995071;28;8849;-68
2022/05/08 06:00:14;;;;;;;;;61.00;44.75;;;;;-143.93;100.00;62969.28;4991249;28;8788;-68
2022/05/08 06:02:43;;;;;;;;;57.00;45.00;;;;;-143.93;100.00;62969.28;5013077;28;8806;-68
2022/05/08 06:05:10;;;;;;;;;62.50;44.50;;;;;-143.93;100.00;62969.28;5020238;28;9724;-68
2022/05/08 06:07:37;;;;;;;;;57.75;45.75;;;;;-143.93;100.00;62969.28;4997649;28;8842;-68
2022/05/08 06:10:05;;;;;;;;;53.75;44.00;;;;;-143.93;100.00;62969.28;4998496;28;8871;-68
2022/05/08 06:12:31;;;;;;;;;60.25;44.50;;;;;-143.93;100.00;62969.28;5010656;28;8808;-68
2022/05/08 06:14:56;;;;;;;;;59.75;47.25;;;;;-143.93;100.00;62969.28;5007055;28;8814;-68
2022/05/08 06:17:22;;;;;;;;;59.00;45.00;;;;;-143.93;100.00;62969.28;5004945;28;8809;-68
2022/05/08 06:19:47;;;;;;;;;56.00;43.00;;;;;-143.93;100.00;62969.28;5000499;28;8839;-68
2022/05/08 06:22:13;;;;;;;;;64.25;45.75;;;;;-143.93;100.00;62969.28;4998158;28;8833;-68
2022/05/08 06:24:38;;;;;;;;;59.75;44.75;;;;;-143.93;100.00;62969.28;5002663;28;8823;-68
2022/05/08 06:27:05;;;;;;;;;57.25;43.50;;;;;-143.93;100.00;62969.28;5007132;28;8870;-68
2022/05/08 06:29:31;;;;;;;;;63.00;46.25;;;;;-143.93;100.00;62969.28;4992899;28;8811;-68
2022/05/08 06:31:56;;;;;;;;;59.50;44.25;;;;;-143.93;100.00;62969.28;4997781;28;8823;-68
2022/05/08 06:34:21;;;;;;;;;60.50;45.75;;;;;-143.93;100.00;62969.28;4996455;28;8820;-68
2022/05/08 06:36:47;;;;;;;;;58.75;44.50;;;;;-143.93;100.00;62969.28;4994451;28;8828;-68
2022/05/08 06:39:13;;;;;;;;;59.50;45.75;;;;;-143.93;100.00;62969.28;4990423;28;8843;-68
2022/05/08 06:41:39;;;;;;;;;62.75;46.50;;;;;-143.93;100.00;62969.28;4992240;28;8851;-68
2022/05/08 06:44:04;;;;;;;;;62.00;47.00;;;;;-143.93;100.00;62969.28;5006472;28;8793;-68
2022/05/08 06:46:32;;;;;;;;;61.00;48.75;;;;;-143.93;100.00;62969.28;5002033;28;8810;-68
2022/05/08 06:49:00;;;;;;;;;59.50;44.75;;;;;-143.93;100.00;62969.28;5009346;28;8798;-69
2022/05/08 06:51:26;;;;;;;;;59.00;46.00;;;;;-143.93;100.00;62969.28;5003850;28;8796;-68
2022/05/08 06:53:52;;;;;;;;;59.50;46.75;;;;;-143.93;100.00;62969.28;5005225;28;8809;-68
2022/05/08 06:56:17;;;;;;;;;63.75;47.00;;;;;-143.93;100.00;62969.28;5004527;28;8839;-69
2022/05/08 07:01:40;;;;;;;;;53.00;40.25;;;;;-143.93;100.00;62969.28;5003639;28;8803;-68
2022/05/08 07:04:09;;;;;;;;;60.50;44.75;;;;;-143.93;100.00;62969.28;5003045;28;8793;-68
2022/05/08 07:06:36;;;;;;;;;55.25;42.25;;;;;-143.93;100.00;62969.28;5007469;28;8863;-68
2022/05/08 07:09:02;;;;;;;;;57.00;45.00;;;;;-143.93;100.00;62969.28;4992920;28;9561;-68
2022/05/08 07:11:28;;;;;;;;;52.00;43.25;;;;;-143.93;100.00;62969.28;5011354;28;8820;-68
2022/05/08 07:13:53;;;;;;;;;55.75;44.00;;;;;-143.93;100.00;62969.28;5002826;28;8839;-69
2022/05/08 07:16:18;;;;;;;;;53.25;43.75;;;;;-143.93;100.00;62969.28;4998172;28;8824;-68
2022/05/08 07:18:44;;;;;;;;;58.67;43.67;;;;;-143.93;100.00;62969.28;5010702;28;18232;-68
2022/05/08 07:21:09;;;;;;;;;58.25;42.75;;;;;-143.93;100.00;62969.28;5005209;28;9210;-68
2022/05/08 07:23:34;;;;;;;;;56.00;43.00;;;;;-143.93;100.00;62969.28;5004476;28;8821;-68
2022/05/08 07:26:00;;;;;;;;;55.00;44.50;;;;;-143.93;100.00;62969.28;5001078;28;8829;-69
2022/05/08 07:28:25;;;;;;;;;60.25;45.25;;;;;-143.93;100.00;62969.28;4999401;27;8840;-69
2022/05/08 07:30:51;;;;;;;;;52.50;43.75;;;;;-143.93;100.00;62969.28;5002016;28;8847;-69
2022/05/08 07:33:16;;;;;;;;;59.75;43.25;;;;;-143.93;100.00;62969.28;5006522;28;11742;-69
2022/05/08 07:38:30;;;;;;;;;57.75;42.50;;;;;-143.93;100.00;62969.28;4993019;28;8816;-69
2022/05/08 07:40:56;;;;;;;;;56.00;44.75;;;;;-143.93;100.00;62969.28;5000611;28;8916;-69
2022/05/08 07:43:22;;;;;;;;;59.75;42.75;;;;;-143.93;100.00;62969.28;4997587;28;8937;-69
2022/05/08 07:45:47;;;;;;;;;57.00;43.25;;;;;-143.93;100.00;62969.28;4997605;28;8812;-68
2022/05/08 07:48:13;;;;;;;;;56.25;42.50;;;;;-143.93;100.00;62969.28;5002150;28;8855;-69
2022/05/08 07:50:38;;;;;;;;;56.00;42.25;;;;;-143.93;100.00;62969.28;5014435;28;8907;-69
2022/05/08 07:53:04;;;;;;;;;54.25;44.50;;;;;-143.93;100.00;62969.28;4993622;28;8843;-69
2022/05/08 07:55:29;;;;;;;;;58.00;44.00;;;;;-143.93;100.00;62969.28;4997310;28;8906;-69
2022/05/08 07:57:55;;;;;;;;;57.00;43.25;;;;;-143.93;100.00;62969.28;5001788;28;8926;-69
2022/05/08 08:00:20;;;;;;;;;56.50;44.25;;;;;-143.93;100.00;62969.28;4989833;28;8867;-69
2022/05/08 08:02:49;;;;;;;;;59.00;45.00;;;;;-143.93;100.00;62969.28;5001030;28;8816;-69
2022/05/08 08:05:14;;;;;;;;;57.50;42.00;;;;;-143.93;100.00;62969.28;5031471;28;8941;-69
2022/05/08 08:07:39;;;;;;;;;56.75;42.75;;;;;-143.93;100.00;62969.28;5013378;27;8841;-69
2022/05/08 08:10:06;;;;;;;;;59.00;44.25;;;;;-143.93;100.00;62969.28;5021627;28;8840;-69
2022/05/08 08:12:31;;;;;;;;;52.00;40.00;;;;;-143.93;100.00;62969.28;5011252;28;8806;-68
2022/05/08 08:14:59;;;;;;;;;58.00;42.00;;;;;-143.93;100.00;62969.28;5003155;28;8837;-68
2022/05/08 08:17:24;;;;;;;;;55.00;41.25;;;;;-143.93;100.00;62969.28;5013444;28;8923;-69
2022/05/08 08:19:49;;;;;;;;;52.75;37.25;;;;;-143.93;100.00;62969.28;5004121;28;9543;-69
2022/05/08 08:22:15;;;;;;;;;49.00;39.75;;;;;-143.93;100.00;62969.28;5011896;28;8909;-69
2022/05/08 08:24:40;;;;;;;;;53.00;42.00;;;;;-143.93;100.00;62969.28;5003460;28;8959;-68
2022/05/08 08:27:07;;;;;;;;;56.00;41.50;;;;;-143.93;100.00;62969.28;4992748;28;8878;-69
2022/05/08 08:29:32;;;;;;;;;56.75;42.50;;;;;-143.93;100.00;62969.28;4992467;28;8788;-69
2022/05/08 08:31:58;;;;;;;;;55.50;40.50;;;;;-143.93;100.00;62969.28;4992989;28;8908;-69
2022/05/08 08:34:23;;;;;;;;;48.75;38.75;;;;;-143.93;100.00;62969.28;4995948;28;10505;-69
2022/05/08 08:36:49;;;;;;;;;58.75;41.75;;;;;-143.93;100.00;62969.28;5014471;28;8807;-69
2022/05/08 08:39:15;;;;;;;;;63.50;48.00;;;;;-143.93;100.00;62969.28;5002522;28;8932;-69
2022/05/08 08:41:43;;;;;;;;;54.00;42.00;;;;;-143.93;100.00;62969.28;5012543;28;8811;-69
2022/05/08 08:49:54;;;;;;;;;51.00;37.75;;;;;-143.93;100.00;62969.28;5008423;28;8859;-69
2022/05/08 08:52:22;;;;;;;;;52.00;39.25;;;;;-143.93;100.00;62969.28;4995022;28;8789;-69
2022/05/08 08:54:47;;;;;;;;;50.50;39.50;;;;;-143.93;100.00;62969.28;4994952;28;8804;-69
2022/05/08 08:57:13;;;;;;;;;49.50;38.75;;;;;-143.93;100.00;62969.28;4999940;28;8940;-69
2022/05/08 08:59:38;;;;;;;;;51.75;40.50;;;;;-143.93;100.00;62969.28;5017351;28;8825;-69
2022/05/08 09:02:13;;;;;;;;;51.75;38.50;;;;;-143.93;100.00;62969.28;4991425;28;8823;-69
2022/05/08 09:04:39;;;;;;;;;53.75;41.00;;;;;-143.93;100.00;62969.28;4993744;28;8811;-69
2022/05/08 09:07:04;;;;;;;;;51.50;41.25;;;;;-143.93;100.00;62969.28;5002373;28;9568;-70
2022/05/08 09:09:33;;;;;;;;;54.75;39.75;;;;;-143.93;100.00;62969.28;5019767;28;9646;-69
2022/05/08 09:11:59;;;;;;;;;50.50;39.75;;;;;-143.93;100.00;62969.28;5027134;28;8801;-69
2022/05/08 09:14:33;;;;;;;;;46.75;36.50;;;;;-143.93;100.00;62969.28;5004153;28;8817;-70
2022/05/08 09:16:59;;;;;;;;;54.25;41.50;;;;;-143.93;100.00;62969.28;4997426;28;8812;-70
2022/05/08 09:19:36;;;;;;;;;48.25;39.00;;;;;-143.93;100.00;62969.28;4999504;28;8805;-69
2022/05/08 09:22:03;;;;;;;;;53.25;40.25;;;;;-143.93;100.00;62969.28;4995249;28;8830;-69
2022/05/08 09:24:30;;;;;;;;;54.50;40.25;;;;;-143.93;100.00;62969.28;5001991;28;9599;-69
2022/05/08 09:27:16;;;;;;;;;55.00;42.50;;;;;-143.93;100.00;62969.28;4990980;28;9620;-69
2022/05/08 09:29:42;;;;;;;;;53.50;41.50;;;;;-143.93;100.00;62969.28;4990029;28;8796;-69
2022/05/08 09:32:10;;;;;;;;;53.25;40.75;;;;;-143.93;100.00;62969.28;4998411;28;9660;-69
2022/05/08 09:34:58;;;;;;;;;49.75;39.75;;;;;-143.93;100.00;62969.28;4995297;28;9559;-70
2022/05/08 09:37:27;;;;;;;;;54.25;41.00;;;;;-143.93;100.00;62969.28;4997584;28;8912;-69
2022/05/08 09:40:19;;;;;;;;;59.50;42.50;;;;;-143.93;100.00;62969.28;5004781;28;8808;-70
2022/05/08 09:42:45;;;;;;;;;51.50;38.50;;;;;-143.93;100.00;62969.28;5005311;28;8805;-69
2022/05/08 09:45:11;;;;;;;;;53.75;42.50;;;;;-143.93;100.00;62969.28;4993144;28;8812;-70
2022/05/08 09:47:42;;;;;;;;;52.00;40.75;;;;;-143.93;100.00;62969.28;5007119;28;8922;-69
2022/05/08 09:50:10;;;;;;;;;53.00;40.50;;;;;-143.93;100.00;62969.28;5001811;28;8806;-69
2022/05/08 09:52:38;;;;;;;;;51.75;40.00;;;;;-143.93;100.00;62969.28;5002440;28;8813;-70
2022/05/08 09:55:04;;;;;;;;;49.00;37.75;;;;;-143.93;100.00;62969.28;5002390;28;8813;-70
2022/05/08 09:57:29;;;;;;;;;51.25;40.00;;;;;-143.93;100.00;62969.28;4994728;28;8813;-70
2022/05/08 09:59:54;;;;;;;;;48.50;38.75;;;;;-143.93;100.00;62969.28;4992006;28;13055;-70
2022/05/08 10:02:21;;;;;;;;;47.00;37.25;;;;;-143.93;100.00;62969.28;5005130;28;8830;-70
2022/05/08 10:04:47;;;;;;;;;50.00;39.25;;;;;-143.93;100.00;62969.28;4995841;28;8804;-70
2022/05/08 10:07:13;;;;;;;;;49.25;36.25;;;;;-143.93;100.00;62969.28;4995754;28;8808;-70
2022/05/08 10:15:31;;;;;;;;;49.50;37.50;;;;;-143.93;100.00;62969.28;4933869;28;8800;-70
2022/05/08 10:18:29;;;;;;;;;53.00;39.00;;;;;-143.93;100.00;62969.28;4937733;28;8833;-70
2022/05/08 10:21:08;;;;;;;;;49.00;37.50;;;;;-143.93;100.00;62969.28;4951405;28;8841;-71
2022/05/08 10:23:36;;;;;;;;;47.25;38.00;;;;;-143.93;100.00;62969.28;4955473;28;8822;-71
2022/05/08 10:26:15;;;;;;;;;51.25;40.00;;;;;-143.93;100.00;62969.28;4967974;28;8889;-71
2022/05/08 10:29:02;;;;;;;;;51.75;39.50;;;;;-143.93;100.00;62969.28;4948652;28;8837;-70
2022/05/08 10:31:42;;;;;;;;;50.75;37.00;;;;;-143.93;100.00;62969.28;4933070;28;8934;-70
2022/05/08 10:34:08;;;;;;;;;48.00;38.50;;;;;-143.93;100.00;62969.28;4940748;28;8862;-70
2022/05/08 10:36:34;;;;;;;;;76.50;64.00;;;;;-143.93;100.00;62969.28;4939037;28;8939;-70
2022/05/08 10:39:38;;;;;;;;;49.50;39.00;;;;;-143.93;100.00;62969.28;4944348;28;8887;-70
2022/05/08 10:42:04;;;;;;;;;51.75;39.00;;;;;-143.93;100.00;62969.28;5004421;28;8824;-70
2022/05/08 10:44:37;;;;;;;;;50.00;38.00;;;;;-143.93;100.00;62969.28;5007844;28;8807;-70
2022/05/08 10:47:32;;;;;;;;;50.00;35.00;;;;;-143.93;100.00;62969.28;4984817;28;8817;-70
2022/05/08 10:49:58;;;;;;;;;46.00;35.75;;;;;-143.93;100.00;62969.28;4987322;28;8815;-71
2022/05/08 10:52:23;;;;;;;;;46.00;38.00;;;;;-143.93;100.00;62969.28;5003035;28;8833;-71
2022/05/08 10:55:03;;;;;;;;;46.50;37.25;;;;;-143.93;100.00;62969.28;5024495;28;8811;-71
2022/05/08 10:57:53;;;;;;;;;50.75;38.50;;;;;27.31;44.60;102282.97;5061603;28;45429;-69
2022/05/08 11:00:27;;;;;;;;;47.00;37.75;;;;;27.38;45.23;102288.66;5032892;28;45407;-69
2022/05/08 11:03:02;;;;;;;;;49.25;39.75;;;;;27.43;44.32;102281.00;5040838;28;45382;-69
2022/05/08 11:05:29;;;;;;;;;105.50;81.50;;;;;27.43;44.26;102289.09;5039831;28;45474;-70
2022/05/08 11:07:57;;;;;;;;;75.00;56.75;;;;;27.35;44.80;102280.81;5038794;28;46199;-71
2022/05/08 11:10:23;;;;;;;;;49.75;38.75;;;;;27.20;44.08;102288.44;5040715;28;45954;-72
2022/05/08 11:13:01;;;;;;;;;44.00;37.25;;;;;27.11;44.59;102287.44;5042200;28;45550;-71
2022/05/08 11:15:35;;;;;;;;;41.75;33.00;;;;;27.04;44.51;102291.63;5039060;28;45368;-70
2022/05/08 11:18:15;;;;;;;;;49.75;38.50;;;;;27.03;44.38;102285.38;5044970;28;45521;-71
2022/05/08 11:23:20;;;;;;;;;51.25;38.50;;;;;27.31;43.89;102289.22;5076437;27;47233;-72
2022/05/08 11:25:47;;;;;;;;;68.50;48.75;;;;;27.20;44.01;102288.44;5063355;27;45560;-70
2022/05/08 11:28:15;;;;;;;;;45.25;38.25;;;;;27.17;44.26;102286.03;5066922;28;45684;-70